PWSweather.com
Personal Weather Stations
Station Observations
SHAHALMS1
Eftra, Falkenberg, HA

EftraFalkenberg, HA

Lat: 56.85, Lon: 12.65

Elevation: 140

Station Type:

http://hem.passagen.se/risarp101

High Low Average
Temperature 40.1°F4.5°C 31.3°F-0.4°C 36.0°F2.2°C
Dew Point 32.8°F0.4°C 23.3°F-4.8°C 27.5°F-2.5°C
Winds 11.8 mph 19.0 kmh 4.1 mph 6.6 kmh 7.0 mph ENE11.3 kmh ENE
Wind Gusts 27.2 mph43.8 kmh 9.3 mph15.0 kmh 15.0 mph24.1 kmh
Humidity 78% 60% 71%
Pressure 29.98 in1015.2 mb 29.47 in998.0 mb -
Precipitation 0.00 in0.0 mm - -
Hour Temp Dew Point Humidity Winds Wind Gusts Pressure Precip Precip Rate Daily Precip Total
12:00 AM 31.6°F-0.2°C 23.3°F-4.8°C 71% 5.1 mph E8.2 kmh E 12.5 mph20.1 kmh 29.95 in1014.2 mb 0.00 in0.0 mm 0.00 in0.0 mm 0.00 in0.0 mm
12:15 AM 31.5°F-0.3°C 23.5°F-4.7°C 72% 6.7 mph ENE10.8 kmh ENE 13.6 mph21.9 kmh 29.95 in1014.2 mb 0.00 in0.0 mm 0.00 in0.0 mm 0.00 in0.0 mm
12:30 AM 31.5°F-0.3°C 23.5°F-4.7°C 72% 6.0 mph NE9.7 kmh NE 10.4 mph16.7 kmh 29.95 in1014.2 mb 0.00 in0.0 mm 0.00 in0.0 mm 0.00 in0.0 mm
12:45 AM 31.3°F-0.4°C 23.3°F-4.8°C 72% 6.1 mph ENE9.8 kmh ENE 12.9 mph20.8 kmh 29.95 in1014.2 mb 0.00 in0.0 mm 0.00 in0.0 mm 0.00 in0.0 mm
01:00 AM 31.5°F-0.3°C 23.8°F-4.6°C 73% 5.9 mph NE9.5 kmh NE 12.2 mph19.6 kmh 29.95 in1014.2 mb 0.00 in0.0 mm 0.00 in0.0 mm 0.00 in0.0 mm
01:15 AM 31.5°F-0.3°C 23.8°F-4.6°C 73% 6.5 mph NE10.5 kmh NE 12.9 mph20.8 kmh 29.92 in1013.2 mb 0.00 in0.0 mm 0.00 in0.0 mm 0.00 in0.0 mm
01:30 AM 31.5°F-0.3°C 23.8°F-4.6°C 73% 6.1 mph NE9.8 kmh NE 12.5 mph20.1 kmh 29.92 in1013.2 mb 0.00 in0.0 mm 0.00 in0.0 mm 0.00 in0.0 mm
01:45 AM 31.5°F-0.3°C 23.8°F-4.6°C 73% 6.7 mph NE10.8 kmh NE 15.4 mph24.8 kmh 29.92 in1013.2 mb 0.00 in0.0 mm 0.00 in0.0 mm 0.00 in0.0 mm
02:00 AM 31.5°F-0.3°C 23.8°F-4.6°C 73% 6.6 mph NE10.6 kmh NE 12.2 mph19.6 kmh 29.92 in1013.2 mb 0.00 in0.0 mm 0.00 in0.0 mm 0.00 in0.0 mm
02:15 AM 31.5°F-0.3°C 23.8°F-4.6°C 73% 6.4 mph NE10.3 kmh NE 11.8 mph19.0 kmh 29.92 in1013.2 mb 0.00 in0.0 mm 0.00 in0.0 mm 0.00 in0.0 mm
02:30 AM 31.5°F-0.3°C 23.8°F-4.6°C 73% 6.9 mph NE11.1 kmh NE 13.6 mph21.9 kmh 29.92 in1013.2 mb 0.00 in0.0 mm 0.00 in0.0 mm 0.00 in0.0 mm
02:45 AM 31.6°F-0.2°C 24.0°F-4.4°C 73% 7.5 mph NE12.1 kmh NE 15.7 mph25.3 kmh 29.92 in1013.2 mb 0.00 in0.0 mm 0.00 in0.0 mm 0.00 in0.0 mm
03:00 AM 31.5°F-0.3°C 23.8°F-4.6°C 73% 7.0 mph ENE11.3 kmh ENE 12.9 mph20.8 kmh 29.92 in1013.2 mb 0.00 in0.0 mm 0.00 in0.0 mm 0.00 in0.0 mm
03:15 AM 31.5°F-0.3°C 24.1°F-4.4°C 74% 6.1 mph NE9.8 kmh NE 14.0 mph22.5 kmh 29.89 in1012.2 mb 0.00 in0.0 mm 0.00 in0.0 mm 0.00 in0.0 mm
03:30 AM 31.5°F-0.3°C 24.1°F-4.4°C 74% 7.7 mph ENE12.4 kmh ENE 17.5 mph28.2 kmh 29.89 in1012.2 mb 0.00 in0.0 mm 0.00 in0.0 mm 0.00 in0.0 mm
03:45 AM 31.5°F-0.3°C 24.1°F-4.4°C 74% 7.3 mph NE11.7 kmh NE 14.3 mph23.0 kmh 29.86 in1011.2 mb 0.00 in0.0 mm 0.00 in0.0 mm 0.00 in0.0 mm
04:00 AM 31.6°F-0.2°C 24.6°F-4.1°C 75% 8.5 mph ENE13.7 kmh ENE 24.3 mph39.1 kmh 29.86 in1011.2 mb 0.00 in0.0 mm 0.00 in0.0 mm 0.00 in0.0 mm
04:15 AM 31.8°F-0.1°C 24.8°F-4.0°C 75% 9.0 mph NE14.5 kmh NE 19.7 mph31.7 kmh 29.86 in1011.2 mb 0.00 in0.0 mm 0.00 in0.0 mm 0.00 in0.0 mm
04:30 AM 32.0°F0.0°C 25.3°F-3.7°C 76% 7.9 mph NE12.7 kmh NE 14.0 mph22.5 kmh 29.86 in1011.2 mb 0.00 in0.0 mm 0.00 in0.0 mm 0.00 in0.0 mm
04:45 AM 32.0°F0.0°C 25.3°F-3.7°C 76% 8.3 mph ENE13.4 kmh ENE 17.2 mph27.7 kmh 29.89 in1012.2 mb 0.00 in0.0 mm 0.00 in0.0 mm 0.00 in0.0 mm
05:00 AM 32.0°F0.0°C 25.3°F-3.7°C 76% 8.0 mph ENE12.9 kmh ENE 16.5 mph26.6 kmh 29.89 in1012.2 mb 0.00 in0.0 mm 0.00 in0.0 mm 0.00 in0.0 mm
05:15 AM 32.2°F0.1°C 25.5°F-3.6°C 76% 7.3 mph ENE11.7 kmh ENE 16.1 mph25.9 kmh 29.89 in1012.2 mb 0.00 in0.0 mm 0.00 in0.0 mm 0.00 in0.0 mm
05:30 AM 32.4°F0.2°C 25.6°F-3.6°C 76% 4.1 mph NE6.6 kmh NE 11.8 mph19.0 kmh 29.86 in1011.2 mb 0.00 in0.0 mm 0.00 in0.0 mm 0.00 in0.0 mm
05:45 AM 32.5°F0.3°C 25.8°F-3.4°C 76% 5.6 mph ENE9.0 kmh ENE 13.6 mph21.9 kmh 29.86 in1011.2 mb 0.00 in0.0 mm 0.00 in0.0 mm 0.00 in0.0 mm
06:00 AM 32.5°F0.3°C 25.8°F-3.4°C 76% 5.8 mph E9.3 kmh E 19.3 mph31.1 kmh 29.86 in1011.2 mb 0.00 in0.0 mm 0.00 in0.0 mm 0.00 in0.0 mm
06:15 AM 32.5°F0.3°C 25.8°F-3.4°C 76% 4.7 mph ENE7.6 kmh ENE 12.5 mph20.1 kmh 29.86 in1011.2 mb 0.00 in0.0 mm 0.00 in0.0 mm 0.00 in0.0 mm
06:30 AM 32.5°F0.3°C 25.8°F-3.4°C 76% 5.6 mph ENE9.0 kmh ENE 11.5 mph18.5 kmh 29.86 in1011.2 mb 0.00 in0.0 mm 0.00 in0.0 mm 0.00 in0.0 mm
06:45 AM 32.7°F0.4°C 26.0°F-3.3°C 76% 7.6 mph E12.2 kmh E 15.4 mph24.8 kmh 29.83 in1010.2 mb 0.00 in0.0 mm 0.00 in0.0 mm 0.00 in0.0 mm
07:00 AM 32.9°F0.5°C 26.5°F-3.1°C 77% 6.4 mph E10.3 kmh E 17.2 mph27.7 kmh 29.86 in1011.2 mb 0.00 in0.0 mm 0.00 in0.0 mm 0.00 in0.0 mm
07:15 AM 33.3°F0.7°C 26.8°F-2.9°C 77% 6.0 mph E9.7 kmh E 14.0 mph22.5 kmh 29.86 in1011.2 mb 0.00 in0.0 mm 0.00 in0.0 mm 0.00 in0.0 mm
07:30 AM 33.6°F0.9°C 27.5°F-2.5°C 78% 6.3 mph E10.1 kmh E 13.6 mph21.9 kmh 29.86 in1011.2 mb 0.00 in0.0 mm 0.00 in0.0 mm 0.00 in0.0 mm
07:39 AM 33.8°F1.0°C 27.7°F-2.4°C 78% 8.7 mph E14.0 kmh E 10.7 mph17.2 kmh 29.98 in1015.2 mb 0.00 in0.0 mm 0.00 in0.0 mm 0.00 in0.0 mm
07:45 AM 34.0°F1.1°C 27.8°F-2.3°C 78% 5.6 mph NE9.0 kmh NE 10.7 mph17.2 kmh 29.86 in1011.2 mb 0.00 in0.0 mm 0.00 in0.0 mm 0.00 in0.0 mm
08:00 AM 34.3°F1.3°C 28.2°F-2.1°C 78% 6.3 mph ENE10.1 kmh ENE 11.8 mph19.0 kmh 29.86 in1011.2 mb 0.00 in0.0 mm 0.00 in0.0 mm 0.00 in0.0 mm
08:15 AM 34.5°F1.4°C 28.1°F-2.2°C 77% 6.8 mph ENE10.9 kmh ENE 12.9 mph20.8 kmh 29.86 in1011.2 mb 0.00 in0.0 mm 0.00 in0.0 mm 0.00 in0.0 mm
08:30 AM 34.9°F1.6°C 28.4°F-2.0°C 77% 7.8 mph E12.6 kmh E 19.0 mph30.6 kmh 29.86 in1011.2 mb 0.00 in0.0 mm 0.00 in0.0 mm 0.00 in0.0 mm
08:45 AM 35.2°F1.8°C 28.8°F-1.8°C 77% 6.3 mph E10.1 kmh E 12.2 mph19.6 kmh 29.86 in1011.2 mb 0.00 in0.0 mm 0.00 in0.0 mm 0.00 in0.0 mm
09:00 AM 35.6°F2.0°C 28.8°F-1.8°C 76% 6.6 mph E10.6 kmh E 14.0 mph22.5 kmh 29.86 in1011.2 mb 0.00 in0.0 mm 0.00 in0.0 mm 0.00 in0.0 mm
09:15 AM 36.0°F2.2°C 29.1°F-1.6°C 76% 7.0 mph ENE11.3 kmh ENE 13.6 mph21.9 kmh 29.86 in1011.2 mb 0.00 in0.0 mm 0.00 in0.0 mm 0.00 in0.0 mm
09:30 AM 36.3°F2.4°C 29.5°F-1.4°C 76% 7.3 mph ENE11.7 kmh ENE 13.6 mph21.9 kmh 29.83 in1010.2 mb 0.00 in0.0 mm 0.00 in0.0 mm 0.00 in0.0 mm
09:45 AM 36.7°F2.6°C 29.5°F-1.4°C 75% 6.9 mph NE11.1 kmh NE 11.1 mph17.9 kmh 29.86 in1011.2 mb 0.00 in0.0 mm 0.00 in0.0 mm 0.00 in0.0 mm
10:00 AM 37.0°F2.8°C 29.8°F-1.2°C 75% 6.7 mph NE10.8 kmh NE 13.6 mph21.9 kmh 29.86 in1011.2 mb 0.00 in0.0 mm 0.00 in0.0 mm 0.00 in0.0 mm
10:15 AM 37.4°F3.0°C 29.5°F-1.4°C 73% 6.2 mph NE10.0 kmh NE 11.8 mph19.0 kmh 29.83 in1010.2 mb 0.00 in0.0 mm 0.00 in0.0 mm 0.00 in0.0 mm
10:30 AM 37.6°F3.1°C 29.4°F-1.4°C 72% 5.6 mph NE9.0 kmh NE 9.3 mph15.0 kmh 29.83 in1010.2 mb 0.00 in0.0 mm 0.00 in0.0 mm 0.00 in0.0 mm
10:45 AM 37.9°F3.3°C 29.4°F-1.4°C 71% 6.4 mph NE10.3 kmh NE 10.4 mph16.7 kmh 29.83 in1010.2 mb 0.00 in0.0 mm 0.00 in0.0 mm 0.00 in0.0 mm
11:00 AM 38.3°F3.5°C 29.7°F-1.3°C 71% 7.4 mph NE11.9 kmh NE 17.9 mph28.8 kmh 29.83 in1010.2 mb 0.00 in0.0 mm 0.00 in0.0 mm 0.00 in0.0 mm
11:15 AM 38.8°F3.8°C 30.2°F-1.0°C 71% 7.0 mph ENE11.3 kmh ENE 12.9 mph20.8 kmh 29.83 in1010.2 mb 0.00 in0.0 mm 0.00 in0.0 mm 0.00 in0.0 mm
11:30 AM 39.4°F4.1°C 30.4°F-0.9°C 70% 5.9 mph ENE9.5 kmh ENE 11.5 mph18.5 kmh 29.83 in1010.2 mb 0.00 in0.0 mm 0.00 in0.0 mm 0.00 in0.0 mm
11:45 AM 39.6°F4.2°C 30.2°F-1.0°C 69% 6.3 mph ENE10.1 kmh ENE 11.8 mph19.0 kmh 29.83 in1010.2 mb 0.00 in0.0 mm 0.00 in0.0 mm 0.00 in0.0 mm
12:00 PM 39.9°F4.4°C 30.6°F-0.8°C 69% 5.4 mph ENE8.7 kmh ENE 11.8 mph19.0 kmh 29.80 in1009.1 mb 0.00 in0.0 mm 0.00 in0.0 mm 0.00 in0.0 mm
12:15 PM 39.9°F4.4°C 30.6°F-0.8°C 69% 8.5 mph E13.7 kmh E 19.0 mph30.6 kmh 29.80 in1009.1 mb 0.00 in0.0 mm 0.00 in0.0 mm 0.00 in0.0 mm
12:30 PM 40.1°F4.5°C 30.4°F-0.9°C 68% 9.0 mph ENE14.5 kmh ENE 16.5 mph26.6 kmh 29.80 in1009.1 mb 0.00 in0.0 mm 0.00 in0.0 mm 0.00 in0.0 mm
12:45 PM 40.1°F4.5°C 30.0°F-1.1°C 67% 5.7 mph NE9.2 kmh NE 11.8 mph19.0 kmh 29.80 in1009.1 mb 0.00 in0.0 mm 0.00 in0.0 mm 0.00 in0.0 mm
01:00 PM 39.9°F4.4°C 29.5°F-1.4°C 66% 6.9 mph ENE11.1 kmh ENE 14.0 mph22.5 kmh 29.80 in1009.1 mb 0.00 in0.0 mm 0.00 in0.0 mm 0.00 in0.0 mm
01:15 PM 39.9°F4.4°C 29.5°F-1.4°C 66% 7.8 mph E12.6 kmh E 12.5 mph20.1 kmh 29.77 in1008.1 mb 0.00 in0.0 mm 0.00 in0.0 mm 0.00 in0.0 mm
01:30 PM 39.7°F4.3°C 28.9°F-1.7°C 65% 9.2 mph E14.8 kmh E 20.4 mph32.8 kmh 29.77 in1008.1 mb 0.00 in0.0 mm 0.00 in0.0 mm 0.00 in0.0 mm
01:45 PM 39.7°F4.3°C 28.5°F-1.9°C 64% 8.9 mph E14.3 kmh E 12.9 mph20.8 kmh 29.74 in1007.1 mb 0.00 in0.0 mm 0.00 in0.0 mm 0.00 in0.0 mm
02:00 PM 39.9°F4.4°C 28.7°F-1.8°C 64% 11.8 mph ENE19.0 kmh ENE 22.9 mph36.9 kmh 29.74 in1007.1 mb 0.00 in0.0 mm 0.00 in0.0 mm 0.00 in0.0 mm
02:15 PM 39.9°F4.4°C 28.3°F-2.1°C 63% 10.9 mph ENE17.5 kmh ENE 16.8 mph27.0 kmh 29.74 in1007.1 mb 0.00 in0.0 mm 0.00 in0.0 mm 0.00 in0.0 mm
05:30 PM 38.7°F3.7°C 26.0°F-3.3°C 60% 9.6 mph ENE15.4 kmh ENE 19.7 mph31.7 kmh 29.68 in1005.1 mb 0.00 in0.0 mm 0.00 in0.0 mm 0.00 in0.0 mm
05:45 PM 38.7°F3.7°C 26.0°F-3.3°C 60% 8.6 mph ENE13.8 kmh ENE 16.1 mph25.9 kmh 29.68 in1005.1 mb 0.00 in0.0 mm 0.00 in0.0 mm 0.00 in0.0 mm
06:00 PM 38.7°F3.7°C 26.0°F-3.3°C 60% 6.8 mph NE10.9 kmh NE 10.4 mph16.7 kmh 29.68 in1005.1 mb 0.00 in0.0 mm 0.00 in0.0 mm 0.00 in0.0 mm
06:15 PM 38.5°F3.6°C 26.2°F-3.2°C 61% 9.7 mph NE15.6 kmh NE 15.7 mph25.3 kmh 29.68 in1005.1 mb 0.00 in0.0 mm 0.00 in0.0 mm 0.00 in0.0 mm
06:30 PM 38.5°F3.6°C 26.6°F-3.0°C 62% 8.5 mph ENE13.7 kmh ENE 19.3 mph31.1 kmh 29.65 in1004.1 mb 0.00 in0.0 mm 0.00 in0.0 mm 0.00 in0.0 mm
06:45 PM 38.3°F3.5°C 26.4°F-3.1°C 62% 8.6 mph ENE13.8 kmh ENE 15.4 mph24.8 kmh 29.65 in1004.1 mb 0.00 in0.0 mm 0.00 in0.0 mm 0.00 in0.0 mm
07:00 PM 38.3°F3.5°C 26.8°F-2.9°C 63% 8.5 mph ENE13.7 kmh ENE 14.7 mph23.7 kmh 29.65 in1004.1 mb 0.00 in0.0 mm 0.00 in0.0 mm 0.00 in0.0 mm
07:15 PM 38.3°F3.5°C 27.2°F-2.7°C 64% 10.6 mph ENE17.1 kmh ENE 16.8 mph27.0 kmh 29.65 in1004.1 mb 0.00 in0.0 mm 0.00 in0.0 mm 0.00 in0.0 mm
07:30 PM 38.3°F3.5°C 27.6°F-2.4°C 65% 8.2 mph NE13.2 kmh NE 16.1 mph25.9 kmh 29.65 in1004.1 mb 0.00 in0.0 mm 0.00 in0.0 mm 0.00 in0.0 mm
07:45 PM 38.3°F3.5°C 28.3°F-2.1°C 67% 7.1 mph NE11.4 kmh NE 10.0 mph16.1 kmh 29.62 in1003.0 mb 0.00 in0.0 mm 0.00 in0.0 mm 0.00 in0.0 mm
08:00 PM 38.3°F3.5°C 28.7°F-1.8°C 68% 7.8 mph NE12.6 kmh NE 16.8 mph27.0 kmh 29.62 in1003.0 mb 0.00 in0.0 mm 0.00 in0.0 mm 0.00 in0.0 mm
08:15 PM 38.3°F3.5°C 28.7°F-1.8°C 68% 7.8 mph NE12.6 kmh NE 13.6 mph21.9 kmh 29.62 in1003.0 mb 0.00 in0.0 mm 0.00 in0.0 mm 0.00 in0.0 mm
08:30 PM 38.3°F3.5°C 29.0°F-1.7°C 69% 7.6 mph NE12.2 kmh NE 13.6 mph21.9 kmh 29.59 in1002.0 mb 0.00 in0.0 mm 0.00 in0.0 mm 0.00 in0.0 mm
08:45 PM 38.7°F3.7°C 29.4°F-1.4°C 69% 8.2 mph NE13.2 kmh NE 24.3 mph39.1 kmh 29.59 in1002.0 mb 0.00 in0.0 mm 0.00 in0.0 mm 0.00 in0.0 mm
09:00 PM 38.7°F3.7°C 29.4°F-1.4°C 69% 7.5 mph ENE12.1 kmh ENE 11.8 mph19.0 kmh 29.59 in1002.0 mb 0.00 in0.0 mm 0.00 in0.0 mm 0.00 in0.0 mm
09:15 PM 38.8°F3.8°C 29.5°F-1.4°C 69% 8.2 mph ENE13.2 kmh ENE 16.1 mph25.9 kmh 29.59 in1002.0 mb 0.00 in0.0 mm 0.00 in0.0 mm 0.00 in0.0 mm
09:30 PM 39.0°F3.9°C 30.1°F-1.1°C 70% 8.0 mph E12.9 kmh E 19.3 mph31.1 kmh 29.56 in1001.0 mb 0.00 in0.0 mm 0.00 in0.0 mm 0.00 in0.0 mm
09:45 PM 39.0°F3.9°C 30.4°F-0.9°C 71% 9.2 mph NE14.8 kmh NE 19.3 mph31.1 kmh 29.56 in1001.0 mb 0.00 in0.0 mm 0.00 in0.0 mm 0.00 in0.0 mm
10:00 PM 39.2°F4.0°C 30.6°F-0.8°C 71% 9.7 mph ENE15.6 kmh ENE 27.2 mph43.8 kmh 29.56 in1001.0 mb 0.00 in0.0 mm 0.00 in0.0 mm 0.00 in0.0 mm
10:15 PM 39.2°F4.0°C 30.6°F-0.8°C 71% 7.2 mph ENE11.6 kmh ENE 14.0 mph22.5 kmh 29.56 in1001.0 mb 0.00 in0.0 mm 0.00 in0.0 mm 0.00 in0.0 mm
10:30 PM 39.4°F4.1°C 31.1°F-0.5°C 72% 8.1 mph ENE13.0 kmh ENE 16.5 mph26.6 kmh 29.53 in1000.0 mb 0.00 in0.0 mm 0.00 in0.0 mm 0.00 in0.0 mm
10:45 PM 39.4°F4.1°C 31.4°F-0.3°C 73% 8.2 mph E13.2 kmh E 16.8 mph27.0 kmh 29.53 in1000.0 mb 0.00 in0.0 mm 0.00 in0.0 mm 0.00 in0.0 mm
11:00 PM 39.6°F4.2°C 32.0°F0.0°C 74% 8.4 mph ENE13.5 kmh ENE 16.5 mph26.6 kmh 29.50 in999.0 mb 0.00 in0.0 mm 0.00 in0.0 mm 0.00 in0.0 mm
11:15 PM 39.7°F4.3°C 32.1°F0.1°C 74% 7.6 mph ENE12.2 kmh ENE 17.2 mph27.7 kmh 29.50 in999.0 mb 0.00 in0.0 mm 0.00 in0.0 mm 0.00 in0.0 mm
11:30 PM 39.7°F4.3°C 32.5°F0.3°C 75% 9.6 mph ENE15.4 kmh ENE 24.7 mph39.8 kmh 29.47 in998.0 mb 0.00 in0.0 mm 0.00 in0.0 mm 0.00 in0.0 mm
11:45 PM 39.7°F4.3°C 32.8°F0.4°C 76% 8.5 mph ENE13.7 kmh ENE 17.5 mph28.2 kmh 29.50 in999.0 mb 0.00 in0.0 mm 0.00 in0.0 mm 0.00 in0.0 mm